Las horas y fechas están en horario UTC
Sumar 1 hora en el horario de invierno y 2 horas en el de verano

Informes METAR cercanos

 

LEZL - Sevilla (civ/Mil, Spain
Distance from station: NNE 24km
Actualización: 22/01/2021 06:00
Few Clouds
Few Clouds
 Viento del SO
Viento: SO 20 km/h
Temperatura: 15°C
Rocío: 13°C
Humedad: 88%
Barómetro: 1016 hPa
Clouds: Few Clouds
Visibility: 10 km
Cloud details: Few Clouds 1494 m
2021/01/22 05:00 LEZL 220500Z 23011KT 200V260 9999 FEW049 15/13 Q1016 NOSIG
LEMO - Moron (sp-Usafb), Spain
Distance from station: E 38km
Actualización: 22/01/2021 06:18
Muy nuboso
Muy nuboso
 Viento del OSO
Viento: OSO 26 km/h
Temperatura: 14°C
Rocío: 14°C
Humedad: 100%
Barómetro: 1017 hPa
Clouds: Muy nuboso
Visibility: 5 km
Cloud details: Few Clouds 122 m
Parcialmente nuboso 183 m
Muy nuboso 274 m
2021/01/22 05:18 LEMO 220518Z 25014KT 200V280 5000 FEW004 SCT006 BKN009 14/14 Q1017 NOSIG
LEJR - Jerez (civ/Mil), Spain
Distance from station: S 53km
Actualización: 22/01/2021 06:00
Cubierto
Cubierto
 Viento del OSO
Viento: OSO 31 km/h, Racha: 54 km/h
Temperatura: 16°C
Rocío: 14°C
Humedad: 88%
Barómetro: 1018 hPa
Clouds: Cubierto
Visibility: 10 km
Cloud details: Muy nuboso 305 m
Muy nuboso 1067 m
Cubierto 1280 m
2021/01/22 05:00 LEJR 220500Z 25017G29KT 9999 BKN010 BKN035 OVC042 16/14 Q1018
 
LERT - Rota Naval Stati, Spain
Distance from station: SSO 71km
Actualización: 22/01/2021 06:00
Few Clouds
Few Clouds
 Viento del O
Viento: O 28 km/h
Temperatura: 16°C
Rocío: 15°C
Humedad: 94%
Barómetro: 1018 hPa
Clouds: Few Clouds
Visibility: 9 km
Cloud details: Few Clouds 1311 m
2021/01/22 05:00 LERT 220500Z 27015KT 9000 FEW043 16/15 Q1018 NOSIG
LEBA - Cordoba Airport, Spain
Distance from station: ENE 128km
Actualización: 22/01/2021 06:00
Cubierto
Cubierto
 Viento del OSO
Viento: OSO 30 km/h, Racha: 48 km/h
Temperatura: 15°C
Rocío: 13°C
Humedad: 88%
Barómetro: 1014 hPa
Clouds: Cubierto
Visibility: 10 km
Cloud details: Cubierto 427 m
2021/01/22 05:00 LEBA 220500Z AUTO 25016G26KT 200V280 9999 OVC014 15/13 Q1014
LXGB - Gibraltar (civ/M, Gibraltar
Distance from station: SSE 137km
Actualización: 22/01/2021 05:50
Muy nuboso
Muy nuboso
 Viento del SO
Viento: SO 35 km/h
Temperatura: 16°C
Rocío: 15°C
Humedad: 94%
Barómetro: 1017 hPa
Clouds: Muy nuboso
Visibility: 6 km
Cloud details: Few Clouds 213 m
Parcialmente nuboso 396 m
Muy nuboso 792 m
2021/01/22 04:50 LXGB 220450Z AUTO 23019KT 6000 UP FEW007/// SCT013/// BKN026/// 16/15 Q1017
 
LEMG - Malaga (civ/Mil), Spain
Distance from station: ESE 150km
Actualización: 22/01/2021 06:00
Muy nuboso
Muy nuboso
 Viento del ONO
Viento: ONO 7 km/h
Temperatura: 12°C
Rocío: 11°C
Humedad: 94%
Barómetro: 1016 hPa
Clouds: Muy nuboso
Visibility: 10 km
Cloud details: Few Clouds 914 m
Parcialmente nuboso 1372 m
Muy nuboso 1524 m
2021/01/22 05:00 LEMG 220500Z 30004KT 280V350 9999 FEW030 SCT045 BKN050 12/11 Q1016 NOSIG
GMTT - Tangier/Boukhalf, Morocco
Distance from station: S 169km
Actualización: 22/01/2021 06:00
Rain showers, Muy nuboso
Rain showers, Muy nuboso
 Viento del SSO
Viento: SSO 22 km/h
Temperatura: 16°C
Rocío: 16°C
Humedad: 100%
Barómetro: 1019 hPa
Resumen: Rain Showers
Clouds: Muy nuboso
Visibility: 2 km
Cloud details: Few Clouds 152 m
Parcialmente nuboso 457 m
Parcialmente nuboso 488 m
Muy nuboso 610 m
2021/01/22 05:00 GMTT 220500Z 21012KT 170V240 1500 SHRA FEW005 SCT015 SCT016TCU BKN020 16/16 Q1019 NOSIG
LPFR - Faro, Portugal
Distance from station: O 172km
Actualización: 22/01/2021 06:00
Few Clouds
Few Clouds
 Viento del OSO
Viento: OSO 35 km/h
Temperatura: 15°C
Rocío: 15°C
Humedad: 100%
Barómetro: 1017 hPa
Clouds: Few Clouds
Visibility: 10 km
Cloud details: Few Clouds 366 m
2021/01/22 05:00 LPFR 220500Z 25019KT 9999 FEW012 15/15 Q1017
 
LPBJ - Beja (por/Ger-Af, Portugal
Distance from station: ONO 192km
Actualización: 22/01/2021 06:00
Muy nuboso
Muy nuboso
 Viento del O
Viento: O 28 km/h, Racha: 50 km/h
Temperatura: 13°C
Rocío: 11°C
Humedad: 88%
Barómetro: 1016 hPa
Clouds: Muy nuboso
Visibility: 10 km
Cloud details: Parcialmente nuboso 457 m
Muy nuboso 853 m
2021/01/22 05:00 LPBJ 220500Z 26015G27KT 9999 SCT015 BKN028 13/11 Q1016
LEBZ - Talavera Ab/Bada, Spain
Distance from station: NNO 194km
Actualización: 21/01/2021 21:00
NOT Current
Muy nuboso
Muy nuboso
 Viento del SSO
Viento: SSO 31 km/h
Temperatura: 14°C
Rocío: 12°C
Humedad: 88%
Barómetro: 1015 hPa
Clouds: Muy nuboso
Visibility: 10 km
Cloud details: Few Clouds 823 m
Muy nuboso 1463 m
2021/01/21 20:00 LEBZ 212000Z 20017KT 170V230 9999 FEW027 BKN048 14/12 Q1015
LEMD - Madrid/Barajas, Spain
Distance from station: NE 415km
Actualización: 22/01/2021 06:00
Few Clouds
Few Clouds
 Viento del SO
Viento: SO 48 km/h, Racha: 70 km/h
Temperatura: 11°C
Rocío: 7°C
Humedad: 77%
Barómetro: 1003 hPa
Clouds: Few Clouds
Visibility: 10 km
Cloud details: Few Clouds 671 m
2021/01/22 05:00 LEMD 220500Z 23026G38KT 9999 FEW022 11/07 Q1003 WS ALL RWY R88/29//95 BECMG 4000 RA